createdAt,value
2022-09-03T00:02:00.394Z,100.00
2022-09-03T00:04:36.267Z,100.00
2022-09-03T00:07:10.197Z,100.00
2022-09-03T00:09:43.524Z,100.00
2022-09-03T00:12:15.950Z,100.00
2022-09-03T00:14:50.014Z,100.00
2022-09-03T00:17:21.024Z,100.00
2022-09-03T00:19:55.786Z,100.00
2022-09-03T00:22:27.228Z,100.00
2022-09-03T00:24:56.225Z,100.00
2022-09-03T00:27:27.838Z,100.00
2022-09-03T00:29:59.675Z,100.00
2022-09-03T00:32:31.337Z,100.00
2022-09-03T00:35:06.265Z,100.00
2022-09-03T00:37:38.047Z,100.00
2022-09-03T00:40:13.612Z,100.00
2022-09-03T00:42:48.805Z,100.00
2022-09-03T00:45:26.935Z,100.00
2022-09-03T00:48:05.177Z,100.00
2022-09-03T00:50:44.335Z,100.00
2022-09-03T00:53:18.559Z,100.00
2022-09-03T00:55:51.792Z,100.00
2022-09-03T00:58:34.359Z,100.00
2022-09-03T01:01:09.659Z,100.00
2022-09-03T01:03:43.451Z,100.00
2022-09-03T01:06:20.257Z,100.00
2022-09-03T01:09:01.083Z,100.00
2022-09-03T01:11:37.563Z,100.00
2022-09-03T01:14:21.216Z,100.00
2022-09-03T01:16:55.321Z,100.00
2022-09-03T01:20:04.276Z,100.00
2022-09-03T01:22:57.654Z,100.00
2022-09-03T01:25:38.772Z,100.00
2022-09-03T01:28:24.004Z,100.00
2022-09-03T01:30:57.573Z,100.00
2022-09-03T01:33:32.184Z,100.00
2022-09-03T01:36:08.034Z,100.00
2022-09-03T01:38:41.480Z,100.00
2022-09-03T01:41:36.427Z,100.00
2022-09-03T01:44:11.539Z,100.00
2022-09-03T01:46:42.489Z,100.00
2022-09-03T01:49:21.228Z,100.00
2022-09-03T01:51:52.732Z,100.00
2022-09-03T01:54:39.694Z,100.00
2022-09-03T01:57:37.506Z,100.00
2022-09-03T02:00:11.265Z,100.00
2022-09-03T02:02:43.817Z,100.00
2022-09-03T02:05:15.666Z,100.00
2022-09-03T02:07:46.769Z,100.00
2022-09-03T02:10:18.524Z,100.00
2022-09-03T02:12:49.760Z,100.00
2022-09-03T02:15:22.361Z,100.00
2022-09-03T02:17:54.199Z,100.00
2022-09-03T02:20:26.184Z,100.00
2022-09-03T02:22:55.564Z,100.00
2022-09-03T02:25:30.204Z,100.00
2022-09-03T02:27:59.183Z,100.00
2022-09-03T02:30:29.380Z,100.00
2022-09-03T02:32:58.198Z,100.00
2022-09-03T02:35:26.915Z,100.00
2022-09-03T02:37:55.571Z,100.00
2022-09-03T02:40:24.471Z,100.00
2022-09-03T02:42:53.672Z,100.00
2022-09-03T02:45:26.439Z,100.00
2022-09-03T02:47:58.589Z,100.00
2022-09-03T02:50:27.981Z,100.00
2022-09-03T02:52:56.466Z,100.00
2022-09-03T02:55:25.254Z,100.00
2022-09-03T02:57:54.017Z,100.00
2022-09-03T03:00:22.950Z,100.00
2022-09-03T03:02:52.524Z,100.00
2022-09-03T03:05:31.647Z,100.00
2022-09-03T03:08:01.474Z,100.00
2022-09-03T03:10:30.087Z,100.00
2022-09-03T03:12:59.131Z,100.00
2022-09-03T03:15:28.020Z,100.00
2022-09-03T03:17:57.921Z,100.00
2022-09-03T03:20:28.121Z,100.00
2022-09-03T03:22:56.691Z,100.00
2022-09-03T03:25:25.407Z,100.00
2022-09-03T03:27:57.137Z,100.00
2022-09-03T03:30:25.852Z,100.00
2022-09-03T03:32:54.709Z,100.00
2022-09-03T03:35:23.667Z,100.00
2022-09-03T03:37:53.423Z,100.00
2022-09-03T03:40:22.205Z,100.00
2022-09-03T03:42:51.052Z,100.00
2022-09-03T03:45:19.797Z,100.00
2022-09-03T03:47:48.474Z,100.00
2022-09-03T03:50:17.490Z,100.00
2022-09-03T03:52:45.891Z,100.00
2022-09-03T03:55:16.118Z,100.00
2022-09-03T03:57:44.819Z,100.00
2022-09-03T04:00:16.028Z,100.00
2022-09-03T04:02:44.861Z,100.00
2022-09-03T04:05:13.732Z,100.00
2022-09-03T04:07:47.439Z,100.00
2022-09-03T04:10:17.879Z,100.00
2022-09-03T04:12:46.537Z,100.00
2022-09-03T04:15:15.275Z,100.00
2022-09-03T04:17:44.242Z,100.00
2022-09-03T04:20:12.952Z,100.00
2022-09-03T04:22:41.245Z,100.00
2022-09-03T04:25:10.759Z,100.00
2022-09-03T04:27:40.836Z,100.00
2022-09-03T04:30:10.601Z,100.00
2022-09-03T04:32:57.243Z,100.00
2022-09-03T04:35:29.366Z,100.00
2022-09-03T04:37:59.238Z,100.00
2022-09-03T04:40:27.918Z,100.00
2022-09-03T04:43:00.942Z,100.00
2022-09-03T04:45:29.787Z,100.00
2022-09-03T04:48:00.168Z,100.00
2022-09-03T04:50:29.884Z,100.00
2022-09-03T04:53:07.223Z,100.00
2022-09-03T04:55:36.737Z,100.00
2022-09-03T04:58:07.870Z,100.00
2022-09-03T05:00:37.922Z,100.00
2022-09-03T05:03:06.627Z,100.00
2022-09-03T05:05:35.451Z,100.00
2022-09-03T05:08:05.141Z,100.00
2022-09-03T05:10:33.615Z,100.00
2022-09-03T05:13:03.563Z,100.00
2022-09-03T05:15:34.553Z,100.00
2022-09-03T05:18:04.005Z,100.00
2022-09-03T05:20:33.360Z,100.00
2022-09-03T05:23:03.955Z,100.00
2022-09-03T05:25:33.340Z,100.00
2022-09-03T05:28:03.055Z,100.00
2022-09-03T05:30:33.163Z,100.00
2022-09-03T05:33:01.884Z,100.00
2022-09-03T05:35:30.994Z,100.00
2022-09-03T05:38:01.885Z,100.00
2022-09-03T05:40:29.977Z,100.00
2022-09-03T05:42:59.953Z,100.00
2022-09-03T05:45:29.870Z,100.00
2022-09-03T05:48:02.690Z,100.00
2022-09-03T05:50:32.134Z,100.00
2022-09-03T05:53:00.919Z,100.00
2022-09-03T05:55:29.991Z,100.00
2022-09-03T05:57:58.790Z,100.00
2022-09-03T06:00:28.168Z,100.00
2022-09-03T06:02:57.282Z,100.00
2022-09-03T06:05:28.819Z,100.00
2022-09-03T06:07:57.189Z,100.00
2022-09-03T06:10:30.707Z,100.00
2022-09-03T06:13:03.891Z,100.00
2022-09-03T06:15:32.966Z,100.00
2022-09-03T06:18:01.658Z,100.00
2022-09-03T06:20:36.824Z,100.00
2022-09-03T06:23:05.971Z,100.00
2022-09-03T06:25:34.565Z,100.00
2022-09-03T06:28:03.758Z,100.00
2022-09-03T06:30:32.385Z,100.00
2022-09-03T06:33:01.104Z,100.00
2022-09-03T06:35:32.027Z,100.00
2022-09-03T06:38:12.575Z,100.00
2022-09-03T06:40:40.986Z,100.00
2022-09-03T06:43:11.034Z,100.00
2022-09-03T06:45:39.707Z,100.00
2022-09-03T06:48:08.522Z,100.00
2022-09-03T06:50:38.548Z,100.00
2022-09-03T06:53:07.247Z,100.00
2022-09-03T06:55:35.758Z,100.00
2022-09-03T06:58:04.385Z,100.00
2022-09-03T07:00:33.364Z,97.02
2022-09-03T07:03:03.155Z,96.88
2022-09-03T07:05:32.245Z,94.51
2022-09-03T07:08:02.387Z,90.17
2022-09-03T07:10:30.788Z,90.75
2022-09-03T07:12:59.661Z,83.08
2022-09-03T07:15:28.487Z,69.51
2022-09-03T07:17:57.264Z,65.63
2022-09-03T07:20:26.102Z,49.65
2022-09-03T07:22:56.793Z,41.46
2022-09-03T07:25:27.476Z,35.73
2022-09-03T07:27:56.190Z,34.62
2022-09-03T07:30:26.545Z,32.64
2022-09-03T07:32:55.217Z,27.77
2022-09-03T07:35:25.902Z,27.90
2022-09-03T07:37:55.262Z,26.50
2022-09-03T07:40:23.867Z,26.91
2022-09-03T07:42:59.031Z,23.94
2022-09-03T07:45:29.293Z,24.03
2022-09-03T07:47:58.076Z,23.45
2022-09-03T07:50:26.903Z,22.44
2022-09-03T07:52:59.029Z,20.00
2022-09-03T07:55:28.068Z,19.88
2022-09-03T07:57:59.571Z,19.92
2022-09-03T08:00:28.696Z,19.54
2022-09-03T08:02:59.787Z,20.46
2022-09-03T08:05:28.527Z,19.42
2022-09-03T08:07:57.215Z,20.04
2022-09-03T08:10:28.618Z,18.32
2022-09-03T08:12:59.390Z,18.74
2022-09-03T08:15:28.275Z,18.48
2022-09-03T08:18:03.552Z,18.35
2022-09-03T08:20:35.183Z,19.02
2022-09-03T08:23:04.232Z,18.59
2022-09-03T08:25:33.292Z,19.88
2022-09-03T08:28:03.104Z,21.72
2022-09-03T08:30:31.810Z,23.59
2022-09-03T08:33:04.987Z,25.09
2022-09-03T08:35:34.839Z,25.98
2022-09-03T08:38:06.296Z,27.76
2022-09-03T08:40:39.394Z,28.86
2022-09-03T08:43:17.517Z,29.03
2022-09-03T08:45:46.885Z,32.28
2022-09-03T08:48:21.725Z,31.40
2022-09-03T08:50:59.985Z,31.03
2022-09-03T08:53:37.663Z,24.96
2022-09-03T08:56:09.697Z,22.86
2022-09-03T08:58:44.026Z,20.49
2022-09-03T09:01:18.017Z,17.68
2022-09-03T09:03:55.233Z,18.00
2022-09-03T09:06:30.229Z,16.74
2022-09-03T09:09:05.669Z,16.94
2022-09-03T09:11:45.270Z,16.93
2022-09-03T09:14:21.592Z,14.90
2022-09-03T09:16:59.142Z,15.64
2022-09-03T09:19:39.168Z,14.16
2022-09-03T09:22:11.181Z,14.64
2022-09-03T09:24:43.289Z,14.46
2022-09-03T09:27:17.282Z,14.05
2022-09-03T09:29:50.247Z,14.45
2022-09-03T09:32:21.672Z,14.28
2022-09-03T09:34:52.563Z,13.24
2022-09-03T09:37:22.189Z,13.55
2022-09-03T09:39:58.545Z,13.07
2022-09-03T09:42:30.015Z,16.76
2022-09-03T09:45:10.686Z,15.81
2022-09-03T09:47:40.948Z,14.92
2022-09-03T09:50:26.362Z,14.71
2022-09-03T09:53:05.384Z,14.47
2022-09-03T09:55:33.957Z,13.59
2022-09-03T09:58:14.444Z,13.81
2022-09-03T10:00:56.673Z,17.32
2022-09-03T10:03:30.000Z,17.17
2022-09-03T10:06:24.079Z,16.16
2022-09-03T10:08:53.339Z,14.60
2022-09-03T10:11:25.802Z,15.85
2022-09-03T10:13:56.033Z,15.73
2022-09-03T10:16:29.381Z,18.25
2022-09-03T10:19:04.543Z,20.13
2022-09-03T10:21:40.507Z,18.39
2022-09-03T10:24:23.219Z,18.20
2022-09-03T10:26:52.002Z,16.33
2022-09-03T10:29:22.895Z,14.94
2022-09-03T10:32:04.714Z,15.28
2022-09-03T10:34:37.441Z,13.64
2022-09-03T10:37:16.643Z,13.60
2022-09-03T10:39:59.052Z,12.29
2022-09-03T10:42:37.770Z,12.52
2022-09-03T10:45:14.917Z,14.02
2022-09-03T10:48:14.265Z,13.75
2022-09-03T10:50:49.862Z,12.72
2022-09-03T10:53:35.261Z,11.35
2022-09-03T10:56:08.966Z,11.40
2022-09-03T10:58:51.860Z,14.14
2022-09-03T11:01:29.158Z,13.02
2022-09-03T11:04:15.336Z,15.59
2022-09-03T11:06:50.435Z,14.16
2022-09-03T11:09:22.762Z,13.88
2022-09-03T11:11:54.187Z,12.84
2022-09-03T11:14:31.568Z,12.62
2022-09-03T11:17:05.504Z,17.52
2022-09-03T11:19:38.311Z,18.79
2022-09-03T11:22:08.197Z,18.81
2022-09-03T11:24:40.099Z,15.29
2022-09-03T11:27:22.400Z,13.79
2022-09-03T11:29:55.216Z,14.32
2022-09-03T11:32:26.753Z,15.32
2022-09-03T11:34:56.925Z,13.85
2022-09-03T11:37:27.138Z,12.43
2022-09-03T11:40:00.983Z,14.69
2022-09-03T11:42:33.970Z,16.87
2022-09-03T11:45:15.319Z,16.52
2022-09-03T11:47:44.931Z,14.04
2022-09-03T11:50:24.779Z,12.96
2022-09-03T11:52:54.607Z,11.98
2022-09-03T11:55:27.743Z,10.98
2022-09-03T11:57:58.751Z,11.48
2022-09-03T12:00:28.085Z,11.61
2022-09-03T12:02:59.248Z,14.55
2022-09-03T12:05:37.127Z,13.20
2022-09-03T12:08:21.509Z,11.04
2022-09-03T12:10:54.755Z,11.24
2022-09-03T12:13:34.659Z,10.68
2022-09-03T12:16:37.855Z,10.54
2022-09-03T12:19:10.224Z,11.08
2022-09-03T12:21:42.905Z,11.02
2022-09-03T12:24:13.690Z,11.09
2022-09-03T12:26:44.269Z,11.14
2022-09-03T12:29:27.968Z,9.99
2022-09-03T12:31:57.639Z,11.00
2022-09-03T12:34:27.503Z,12.62
2022-09-03T12:36:57.600Z,12.09
2022-09-03T12:42:22.243Z,11.08
2022-09-03T12:44:50.925Z,11.69
2022-09-03T12:47:37.532Z,11.63
2022-09-03T12:50:09.337Z,11.67
2022-09-03T12:52:42.187Z,12.56
2022-09-03T12:55:20.531Z,12.58
2022-09-03T12:57:51.343Z,11.86
2022-09-03T13:00:20.684Z,11.69
2022-09-03T13:02:50.702Z,12.31
2022-09-03T13:05:21.536Z,13.12
2022-09-03T13:07:54.178Z,16.22
2022-09-03T13:10:28.067Z,17.02
2022-09-03T13:13:01.080Z,16.16
2022-09-03T13:15:30.939Z,14.60
2022-09-03T13:18:12.002Z,13.77
2022-09-03T13:20:52.470Z,14.96
2022-09-03T13:24:05.963Z,15.29
2022-09-03T13:26:44.490Z,14.87
2022-09-03T13:29:32.575Z,14.12
2022-09-03T13:32:06.254Z,14.67
2022-09-03T13:34:38.260Z,14.16
2022-09-03T13:37:15.671Z,14.31
2022-09-03T13:39:53.322Z,13.99
2022-09-03T13:42:26.893Z,13.43
2022-09-03T13:44:58.624Z,15.89
2022-09-03T13:47:31.413Z,16.20
2022-09-03T13:50:22.395Z,15.63
2022-09-03T13:52:57.351Z,15.94
2022-09-03T13:55:33.607Z,16.69
2022-09-03T13:58:07.552Z,15.75
2022-09-03T14:00:41.735Z,18.28
2022-09-03T14:03:15.677Z,20.38
2022-09-03T14:05:52.365Z,20.94
2022-09-03T14:08:25.799Z,19.95
2022-09-03T14:11:01.186Z,19.58
2022-09-03T14:13:38.758Z,19.05
2022-09-03T14:16:09.785Z,18.51
2022-09-03T14:18:44.544Z,18.20
2022-09-03T14:21:18.630Z,17.10
2022-09-03T14:23:50.304Z,17.01
2022-09-03T14:26:38.213Z,17.63
2022-09-03T14:29:16.956Z,17.43
2022-09-03T14:32:04.131Z,16.79
2022-09-03T14:34:42.581Z,16.32
2022-09-03T14:37:21.861Z,16.34
2022-09-03T14:39:54.422Z,16.09
2022-09-03T14:42:39.031Z,16.00
2022-09-03T14:45:52.256Z,16.81
2022-09-03T14:48:52.603Z,16.92
2022-09-03T14:51:34.322Z,18.27
2022-09-03T14:54:29.596Z,18.89
2022-09-03T14:57:12.944Z,17.85
2022-09-03T15:00:10.466Z,17.57
2022-09-03T15:03:15.477Z,17.05
2022-09-03T15:05:51.812Z,18.25
2022-09-03T15:08:31.514Z,18.70
2022-09-03T15:11:02.322Z,17.60
2022-09-03T15:13:32.579Z,17.30
2022-09-03T15:16:16.363Z,17.69
2022-09-03T15:18:58.682Z,17.16
2022-09-03T15:21:33.753Z,16.62
2022-09-03T15:24:09.318Z,16.16
2022-09-03T15:26:53.834Z,15.35
2022-09-03T15:29:37.749Z,15.66
2022-09-03T15:32:14.486Z,15.89
2022-09-03T15:34:56.407Z,14.83
2022-09-03T15:37:29.347Z,15.10
2022-09-03T15:40:06.771Z,15.09
2022-09-03T15:42:37.884Z,14.07
2022-09-03T15:45:15.992Z,13.62
2022-09-03T15:47:57.122Z,13.60
2022-09-03T15:50:36.513Z,12.87
2022-09-03T15:53:15.508Z,12.59
2022-09-03T15:55:44.942Z,13.08
2022-09-03T15:58:23.092Z,12.60
2022-09-03T16:01:00.434Z,12.16
2022-09-03T16:03:45.524Z,12.06
2022-09-03T16:06:26.819Z,12.24
2022-09-03T16:08:57.501Z,13.43
2022-09-03T16:11:36.339Z,14.43
2022-09-03T16:14:08.572Z,14.17
2022-09-03T16:16:51.894Z,14.12
2022-09-03T16:19:25.890Z,14.99
2022-09-03T16:22:00.537Z,14.97
2022-09-03T16:24:34.943Z,14.63
2022-09-03T16:27:09.766Z,15.33
2022-09-03T16:29:40.918Z,17.60
2022-09-03T16:32:14.094Z,19.86
2022-09-03T16:34:51.610Z,21.87
2022-09-03T16:37:26.033Z,25.43
2022-09-03T16:40:01.309Z,27.36
2022-09-03T16:42:34.706Z,29.11
2022-09-03T16:45:11.946Z,31.55
2022-09-03T16:47:54.147Z,35.25
2022-09-03T16:50:32.531Z,37.45
2022-09-03T16:53:08.102Z,42.42
2022-09-03T16:55:51.735Z,47.78
2022-09-03T16:58:24.062Z,48.91
2022-09-03T17:01:06.706Z,49.50
2022-09-03T17:03:56.000Z,53.70
2022-09-03T17:06:43.672Z,55.18
2022-09-03T17:09:25.959Z,57.26
2022-09-03T17:12:03.517Z,58.21
2022-09-03T17:14:53.718Z,58.88
2022-09-03T17:17:33.746Z,58.73
2022-09-03T17:20:07.295Z,63.26
2022-09-03T17:22:46.745Z,62.16
2022-09-03T17:25:23.398Z,63.33
2022-09-03T17:27:53.568Z,63.57
2022-09-03T17:30:25.876Z,66.77
2022-09-03T17:33:25.659Z,67.25
2022-09-03T17:36:00.715Z,67.95
2022-09-03T17:38:56.424Z,70.20
2022-09-03T17:41:33.630Z,70.19
2022-09-03T17:44:07.526Z,71.54
2022-09-03T17:46:41.239Z,73.55
2022-09-03T17:49:11.353Z,73.81
2022-09-03T17:51:46.446Z,75.20
2022-09-03T17:54:23.288Z,74.17
2022-09-03T17:56:59.865Z,75.53
2022-09-03T17:59:37.053Z,77.35
2022-09-03T18:02:11.378Z,79.38
2022-09-03T18:04:45.855Z,80.46
2022-09-03T18:07:23.678Z,81.63
2022-09-03T18:10:04.029Z,84.13
2022-09-03T18:12:59.731Z,82.50
2022-09-03T18:15:38.860Z,82.81
2022-09-03T18:18:10.309Z,81.82
2022-09-03T18:21:21.977Z,82.53
2022-09-03T18:24:12.866Z,82.76
2022-09-03T18:27:03.359Z,83.51
2022-09-03T18:29:53.699Z,85.61
2022-09-03T18:32:40.990Z,85.09
2022-09-03T18:35:27.783Z,87.22
2022-09-03T18:38:14.376Z,86.67
2022-09-03T18:41:11.683Z,88.48
2022-09-03T18:44:08.982Z,87.44
2022-09-03T18:50:16.594Z,88.90
2022-09-03T18:53:07.378Z,90.29
2022-09-03T18:56:06.398Z,92.54
2022-09-03T18:59:01.620Z,92.19
2022-09-03T19:01:51.612Z,89.71
2022-09-03T19:04:43.379Z,91.44
2022-09-03T19:07:31.368Z,94.13
2022-09-03T19:10:22.799Z,94.05
2022-09-03T19:13:34.926Z,93.64
2022-09-03T19:16:27.556Z,94.83
2022-09-03T19:19:54.862Z,94.10
2022-09-03T19:22:46.917Z,94.80
2022-09-03T19:25:34.186Z,95.73
2022-09-03T19:28:37.778Z,96.80
2022-09-03T19:31:50.444Z,96.16
2022-09-03T19:34:54.719Z,97.33
2022-09-03T19:37:42.244Z,97.02
2022-09-03T19:40:45.138Z,98.85
2022-09-03T19:43:38.777Z,100.00
2022-09-03T19:46:33.866Z,100.00
2022-09-03T19:49:30.880Z,100.00
2022-09-03T19:52:21.848Z,100.00
2022-09-03T19:55:12.144Z,100.00
2022-09-03T19:57:59.799Z,100.00
2022-09-03T20:00:46.799Z,100.00
2022-09-03T20:03:33.685Z,100.00
2022-09-03T20:06:24.116Z,100.00
2022-09-03T20:09:11.214Z,100.00
2022-09-03T20:11:41.007Z,100.00
2022-09-03T20:14:17.408Z,100.00
2022-09-03T20:17:05.039Z,100.00
2022-09-03T20:19:41.535Z,100.00
2022-09-03T20:22:18.136Z,100.00
2022-09-03T20:25:00.938Z,100.00
2022-09-03T20:27:39.339Z,100.00
2022-09-03T20:30:10.293Z,100.00
2022-09-03T20:33:15.829Z,100.00
2022-09-03T20:35:59.537Z,100.00
2022-09-03T20:38:44.056Z,100.00
2022-09-03T20:41:19.446Z,100.00
2022-09-03T20:44:04.288Z,100.00
2022-09-03T20:46:41.461Z,100.00
2022-09-03T20:49:20.249Z,100.00
2022-09-03T20:51:54.855Z,100.00
2022-09-03T20:54:31.844Z,100.00
2022-09-03T20:57:25.315Z,100.00
2022-09-03T21:00:03.407Z,100.00
2022-09-03T21:02:43.144Z,100.00
2022-09-03T21:05:19.223Z,100.00
2022-09-03T21:07:55.100Z,100.00
2022-09-03T21:10:30.085Z,100.00
2022-09-03T21:13:04.014Z,100.00
2022-09-03T21:15:38.922Z,100.00
2022-09-03T21:18:14.721Z,100.00
2022-09-03T21:20:47.355Z,100.00
2022-09-03T21:23:21.575Z,100.00
2022-09-03T21:25:55.521Z,100.00
2022-09-03T21:28:27.498Z,100.00
2022-09-03T21:31:00.396Z,100.00
2022-09-03T21:33:31.019Z,100.00
2022-09-03T21:36:08.630Z,100.00
2022-09-03T21:38:39.296Z,100.00
2022-09-03T21:41:17.303Z,100.00
2022-09-03T21:43:50.499Z,100.00
2022-09-03T21:46:23.523Z,100.00
2022-09-03T21:48:56.029Z,100.00
2022-09-03T21:51:27.775Z,100.00
2022-09-03T21:53:59.345Z,100.00
2022-09-03T21:56:51.988Z,100.00
2022-09-03T21:59:32.923Z,100.00
2022-09-03T22:02:05.270Z,100.00
2022-09-03T22:04:34.081Z,100.00
2022-09-03T22:07:10.602Z,100.00
2022-09-03T22:09:44.570Z,100.00
2022-09-03T22:12:18.151Z,100.00
2022-09-03T22:14:49.563Z,100.00
2022-09-03T22:17:24.064Z,100.00
2022-09-03T22:19:52.581Z,100.00
2022-09-03T22:22:24.702Z,100.00
2022-09-03T22:24:59.026Z,100.00
2022-09-03T22:27:36.971Z,100.00
2022-09-03T22:30:08.738Z,100.00
2022-09-03T22:32:45.734Z,100.00
2022-09-03T22:35:24.655Z,100.00
2022-09-03T22:38:02.917Z,100.00
2022-09-03T22:40:39.071Z,100.00
2022-09-03T22:43:22.169Z,100.00
2022-09-03T22:46:02.391Z,100.00
2022-09-03T22:48:50.656Z,100.00
2022-09-03T22:51:21.746Z,100.00
2022-09-03T22:54:06.186Z,100.00
2022-09-03T22:56:38.192Z,100.00
2022-09-03T22:59:13.004Z,100.00
2022-09-03T23:01:44.905Z,100.00
2022-09-03T23:04:18.517Z,100.00
2022-09-03T23:06:51.123Z,100.00
2022-09-03T23:09:23.392Z,100.00
2022-09-03T23:11:55.608Z,100.00
2022-09-03T23:14:28.888Z,100.00
2022-09-03T23:17:00.042Z,100.00
2022-09-03T23:19:41.033Z,100.00
2022-09-03T23:22:13.628Z,100.00
2022-09-03T23:24:45.742Z,100.00
2022-09-03T23:27:19.091Z,100.00
2022-09-03T23:29:51.774Z,100.00
2022-09-03T23:32:20.399Z,100.00
2022-09-03T23:34:48.953Z,100.00
2022-09-03T23:37:34.899Z,100.00
2022-09-03T23:40:23.604Z,100.00
2022-09-03T23:43:14.913Z,100.00
2022-09-03T23:45:52.433Z,100.00
2022-09-03T23:48:30.057Z,100.00
2022-09-03T23:51:05.267Z,100.00
2022-09-03T23:53:43.021Z,100.00
2022-09-03T23:56:41.309Z,100.00
2022-09-03T23:59:16.797Z,100.00
